Time;durP1;ratioP1;P1;durP2;ratioP2;P2;SDS_P1;SDS_P2;PMS_P1;PMS_P2;Temp;Humidity;BMP_temperature;BMP_pressure;BME280_temperature;BME280_humidity;BME280_pressure;Samples;Min_cycle;Max_cycle;Signal;HPM_P1;HPM_P2
2023/07/01 00:00:27;;;;;;;11.10;2.67;;;18.00;99.90;;;;;;5069747;28;20040;-84
2023/07/01 00:02:53;;;;;;;9.52;3.08;;;17.90;99.90;;;;;;5053555;28;20040;-84
2023/07/01 00:05:21;;;;;;;10.20;3.17;;;17.90;99.90;;;;;;5070278;28;20040;-84
2023/07/01 00:07:47;;;;;;;10.02;2.80;;;17.90;99.90;;;;;;5070310;28;20043;-85
2023/07/01 00:10:13;;;;;;;9.07;3.17;;;17.90;99.90;;;;;;5069560;28;20037;-84
2023/07/01 00:12:39;;;;;;;10.30;3.03;;;18.00;99.90;;;;;;5053396;28;20110;-84
2023/07/01 00:15:06;;;;;;;10.80;3.05;;;18.00;99.90;;;;;;5070931;28;20119;-84
2023/07/01 00:17:32;;;;;;;10.13;2.45;;;18.00;99.90;;;;;;5069831;28;20045;-84
2023/07/01 00:19:57;;;;;;;9.18;2.80;;;17.90;99.90;;;;;;5068646;28;20040;-84
2023/07/01 00:22:23;;;;;;;9.07;2.58;;;17.90;99.90;;;;;;5070047;28;20041;-84
2023/07/01 00:24:48;;;;;;;8.75;3.00;;;18.00;99.90;;;;;;5069866;28;20051;-84
2023/07/01 00:27:14;;;;;;;10.88;3.22;;;18.00;99.90;;;;;;5053121;28;20093;-84
2023/07/01 00:29:40;;;;;;;11.60;3.55;;;18.00;99.90;;;;;;5069362;28;20037;-84
2023/07/01 00:32:07;;;;;;;10.57;3.08;;;18.00;99.90;;;;;;5052812;28;20042;-84
2023/07/01 00:34:32;;;;;;;11.05;2.88;;;18.00;99.90;;;;;;5069628;28;20044;-84
2023/07/01 00:36:58;;;;;;;10.57;2.85;;;18.00;99.90;;;;;;5069639;28;20047;-84
2023/07/01 00:39:23;;;;;;;8.30;2.45;;;18.00;99.90;;;;;;5052965;28;20072;-84
2023/07/01 00:41:53;;;;;;;7.28;2.10;;;18.00;99.90;;;;;;5052789;28;20086;-84
2023/07/01 00:44:19;;;;;;;10.00;3.00;;;17.90;99.90;;;;;;5070173;28;20457;-84
2023/07/01 00:46:45;;;;;;;10.45;2.80;;;17.90;99.90;;;;;;5069638;28;20094;-84
2023/07/01 00:49:11;;;;;;;10.40;3.20;;;17.90;99.90;;;;;;5068794;28;20044;-84
2023/07/01 00:51:37;;;;;;;9.95;2.78;;;17.90;99.90;;;;;;5069082;28;20064;-84
2023/07/01 00:54:03;;;;;;;10.52;3.20;;;17.90;99.90;;;;;;5070518;28;20053;-84
2023/07/01 00:56:28;;;;;;;10.73;3.13;;;18.00;99.90;;;;;;5069603;28;20040;-84
2023/07/01 00:58:54;;;;;;;11.80;3.10;;;18.00;99.90;;;;;;5069239;28;20410;-84
2023/07/01 01:01:33;;;;;;;9.88;3.10;;;18.00;99.90;;;;;;5069486;28;20044;-84
2023/07/01 01:04:14;;;;;;;9.77;2.78;;;18.00;99.90;;;;;;5069453;28;20490;-84
2023/07/01 01:07:12;;;;;;;9.40;3.08;;;18.00;99.90;;;;;;5070009;28;20045;-84
2023/07/01 01:09:44;;;;;;;9.98;3.15;;;18.10;99.90;;;;;;5068600;28;20045;-84
2023/07/01 01:12:12;;;;;;;8.65;2.80;;;18.10;99.90;;;;;;5069043;28;20043;-84
2023/07/01 01:14:39;;;;;;;6.88;2.13;;;18.10;99.90;;;;;;5052602;28;20044;-85
2023/07/01 01:17:16;;;;;;;9.02;2.70;;;18.00;99.90;;;;;;5069245;28;20044;-84
2023/07/01 01:19:53;;;;;;;10.80;3.10;;;18.10;99.90;;;;;;5068721;28;20048;-84
2023/07/01 01:22:28;;;;;;;11.02;2.45;;;18.10;99.90;;;;;;5069502;28;20043;-84
2023/07/01 01:24:57;;;;;;;10.63;3.30;;;18.10;99.90;;;;;;5052881;28;20040;-84
2023/07/01 01:27:35;;;;;;;9.40;3.17;;;18.10;99.90;;;;;;5069628;28;20044;-84
2023/07/01 01:30:01;;;;;;;10.05;3.33;;;18.20;99.90;;;;;;5052571;28;20421;-84
2023/07/01 01:32:28;;;;;;;9.05;3.08;;;18.20;99.90;;;;;;5072676;28;20041;-85
2023/07/01 01:34:53;;;;;;;11.45;3.10;;;18.20;99.90;;;;;;5056490;28;20436;-84
2023/07/01 01:37:25;;;;;;;9.68;3.10;;;18.20;99.90;;;;;;5055855;28;20490;-84
2023/07/01 01:39:57;;;;;;;11.73;3.47;;;18.20;99.90;;;;;;5072726;28;20043;-84
2023/07/01 01:42:30;;;;;;;13.23;3.60;;;18.20;99.90;;;;;;5072943;28;20048;-84
2023/07/01 01:44:57;;;;;;;11.80;4.28;;;18.20;99.90;;;;;;5056318;28;20640;-84
2023/07/01 01:47:25;;;;;;;9.73;3.20;;;18.20;99.90;;;;;;5072922;28;20083;-84
2023/07/01 01:49:55;;;;;;;10.05;3.40;;;18.20;99.90;;;;;;5055580;28;20521;-84
2023/07/01 01:52:22;;;;;;;11.35;3.45;;;18.10;99.90;;;;;;5072314;28;20056;-84
2023/07/01 01:54:50;;;;;;;9.52;3.53;;;18.20;99.90;;;;;;5072507;28;20494;-84
2023/07/01 01:57:16;;;;;;;10.00;3.35;;;18.10;99.90;;;;;;5072287;28;20082;-84
2023/07/01 01:59:43;;;;;;;10.77;4.05;;;18.10;99.90;;;;;;5071959;28;20094;-84
2023/07/01 02:02:09;;;;;;;8.50;3.40;;;18.00;99.90;;;;;;5072855;28;20192;-84
2023/07/01 02:04:35;;;;;;;8.02;2.72;;;18.10;99.90;;;;;;5055737;28;20684;-85
2023/07/01 02:07:01;;;;;;;10.43;3.60;;;18.00;99.90;;;;;;5072768;28;20048;-85
2023/07/01 02:09:28;;;;;;;11.40;3.53;;;18.00;99.90;;;;;;5072098;28;20033;-85
2023/07/01 02:11:54;;;;;;;9.05;3.42;;;18.00;99.90;;;;;;5054986;28;20565;-84
2023/07/01 02:14:20;;;;;;;10.95;3.40;;;18.00;99.90;;;;;;5072144;28;20167;-84
2023/07/01 02:16:46;;;;;;;8.65;2.65;;;18.00;99.90;;;;;;5071761;28;20131;-85
2023/07/01 02:19:12;;;;;;;13.82;3.67;;;18.00;99.90;;;;;;5071989;28;20045;-84
2023/07/01 02:21:38;;;;;;;9.90;3.42;;;17.90;99.90;;;;;;5071726;28;20048;-84
2023/07/01 02:24:04;;;;;;;14.07;3.97;;;17.80;99.90;;;;;;5055512;28;20044;-84
2023/07/01 02:26:29;;;;;;;9.15;3.33;;;17.70;99.90;;;;;;5072272;28;20067;-85
2023/07/01 02:28:55;;;;;;;10.27;3.88;;;17.50;99.90;;;;;;5055139;28;20132;-84
2023/07/01 02:31:21;;;;;;;9.82;4.22;;;17.40;99.90;;;;;;5071648;28;20240;-85
2023/07/01 02:33:49;;;;;;;11.73;3.70;;;17.30;99.90;;;;;;5071758;28;20490;-84
2023/07/01 02:36:14;;;;;;;7.15;2.72;;;17.30;99.90;;;;;;5054871;28;20041;-85
2023/07/01 02:38:40;;;;;;;10.23;3.95;;;17.20;99.90;;;;;;5071738;28;20127;-85
2023/07/01 02:41:06;;;;;;;11.52;3.47;;;17.10;99.90;;;;;;5054794;28;20044;-84
2023/07/01 02:43:31;;;;;;;8.93;3.67;;;17.10;99.90;;;;;;5070887;28;20048;-84
2023/07/01 02:45:57;;;;;;;10.82;3.80;;;17.10;99.90;;;;;;5055051;28;20127;-84
2023/07/01 02:48:22;;;;;;;9.30;3.70;;;17.10;99.90;;;;;;5071142;28;20049;-84
2023/07/01 02:50:48;;;;;;;10.90;3.90;;;17.10;99.90;;;;;;5054518;28;20037;-84
2023/07/01 02:53:15;;;;;;;8.57;3.22;;;17.10;99.90;;;;;;5071195;28;20136;-85
2023/07/01 02:55:41;;;;;;;11.05;4.30;;;17.10;99.90;;;;;;5071243;28;20052;-85
2023/07/01 02:58:06;;;;;;;10.15;3.58;;;17.10;99.90;;;;;;5071202;28;20049;-84
2023/07/01 03:00:32;;;;;;;8.32;3.47;;;17.10;99.90;;;;;;5071064;28;20085;-85
2023/07/01 03:03:07;;;;;;;7.00;2.20;;;17.20;99.90;;;;;;5072823;28;20417;-84
2023/07/01 03:05:36;;;;;;;10.63;3.60;;;17.10;99.90;;;;;;5054802;28;20044;-84
2023/07/01 03:08:03;;;;;;;8.75;3.47;;;17.20;99.90;;;;;;5054520;28;20495;-85
2023/07/01 03:10:29;;;;;;;11.65;3.75;;;17.20;99.90;;;;;;5070890;28;20036;-84
2023/07/01 03:12:55;;;;;;;10.50;3.58;;;17.20;99.90;;;;;;5070463;28;20508;-84
2023/07/01 03:15:21;;;;;;;8.57;3.70;;;17.30;99.90;;;;;;5071505;28;20051;-84
2023/07/01 03:17:49;;;;;;;10.55;3.72;;;17.30;99.90;;;;;;5070624;28;20042;-84
2023/07/01 03:20:24;;;;;;;10.77;3.53;;;17.20;99.90;;;;;;5053740;28;20098;-84
2023/07/01 03:22:56;;;;;;;9.48;2.67;;;17.10;99.90;;;;;;5070957;28;20037;-84
2023/07/01 03:25:22;;;;;;;12.13;4.00;;;17.00;99.90;;;;;;5054809;28;20044;-84
2023/07/01 03:27:48;;;;;;;9.05;3.53;;;17.00;99.90;;;;;;5070930;28;20042;-84
2023/07/01 03:30:16;;;;;;;10.27;3.72;;;17.00;99.90;;;;;;5053712;28;20044;-84
2023/07/01 03:32:43;;;;;;;10.02;3.60;;;17.00;99.90;;;;;;5053861;28;20044;-84
2023/07/01 03:35:10;;;;;;;9.95;3.80;;;17.00;99.90;;;;;;5053792;28;20444;-84
2023/07/01 03:37:40;;;;;;;9.30;3.20;;;17.10;99.90;;;;;;5070242;28;20740;-84
2023/07/01 03:40:10;;;;;;;8.50;2.40;;;17.10;99.90;;;;;;5070074;28;20033;-84
2023/07/01 03:42:42;;;;;;;9.65;3.60;;;17.10;99.90;;;;;;5070475;28;20410;-84
2023/07/01 03:45:10;;;;;;;9.95;3.35;;;17.10;99.90;;;;;;5071053;28;20412;-84
2023/07/01 03:47:39;;;;;;;11.18;3.67;;;17.20;99.90;;;;;;5053624;28;20105;-84
2023/07/01 03:50:09;;;;;;;7.00;2.38;;;17.30;99.90;;;;;;5070191;28;20476;-84
2023/07/01 03:52:38;;;;;;;10.20;3.35;;;17.20;99.90;;;;;;5053060;28;20410;-84
2023/07/01 03:55:05;;;;;;;11.52;3.33;;;17.30;99.90;;;;;;5070215;28;20032;-84
2023/07/01 03:57:31;;;;;;;10.05;3.88;;;17.30;99.90;;;;;;5070000;28;20040;-85
2023/07/01 03:59:57;;;;;;;9.02;3.80;;;17.30;99.90;;;;;;5070232;28;20048;-84
2023/07/01 04:02:23;;;;;;;11.02;4.15;;;17.30;99.90;;;;;;5069794;28;20040;-84
2023/07/01 04:04:49;;;;;;;10.50;3.50;;;17.20;99.90;;;;;;5070368;28;20054;-85
2023/07/01 04:07:15;;;;;;;8.65;3.60;;;17.20;99.90;;;;;;5070513;28;20131;-84
2023/07/01 04:09:41;;;;;;;6.22;2.25;;;17.10;99.90;;;;;;5069869;28;20033;-84
2023/07/01 04:12:07;;;;;;;11.73;3.30;;;17.10;99.90;;;;;;5070230;28;20132;-84
2023/07/01 04:14:33;;;;;;;10.60;2.60;;;17.00;99.90;;;;;;5069590;28;20044;-85
2023/07/01 04:17:00;;;;;;;10.43;3.90;;;16.80;99.90;;;;;;5053078;28;20052;-84
2023/07/01 04:19:25;;;;;;;10.25;3.53;;;16.80;99.90;;;;;;5053083;28;20083;-84
2023/07/01 04:21:51;;;;;;;8.55;3.60;;;16.70;99.90;;;;;;5053080;28;20244;-84
2023/07/01 04:24:16;;;;;;;12.32;4.50;;;16.60;99.90;;;;;;5070345;28;20037;-84
2023/07/01 04:26:43;;;;;;;9.35;3.97;;;16.50;99.90;;;;;;5053406;28;20044;-84
2023/07/01 04:29:10;;;;;;;6.13;2.33;;;16.50;99.90;;;;;;5069908;28;20044;-85
2023/07/01 04:31:35;;;;;;;9.00;2.58;;;16.40;99.90;;;;;;5069346;28;20080;-84
2023/07/01 04:34:01;;;;;;;10.82;3.92;;;16.40;99.90;;;;;;5069288;28;20082;-84
2023/07/01 04:36:26;;;;;;;9.43;3.47;;;16.30;99.90;;;;;;5069455;28;20036;-85
2023/07/01 04:38:52;;;;;;;8.30;3.55;;;16.40;99.90;;;;;;5069665;28;20090;-84
2023/07/01 04:41:18;;;;;;;7.00;2.63;;;16.40;99.90;;;;;;5069323;28;20115;-85
2023/07/01 04:43:44;;;;;;;7.38;2.50;;;16.40;99.90;;;;;;5069771;28;20035;-84
2023/07/01 04:46:09;;;;;;;8.60;3.90;;;16.30;99.90;;;;;;5069706;28;20047;-84
2023/07/01 04:48:35;;;;;;;9.93;4.13;;;16.40;99.90;;;;;;5069881;28;20035;-84
2023/07/01 04:51:00;;;;;;;9.60;4.35;;;16.40;99.90;;;;;;5052399;28;20542;-84
2023/07/01 04:53:26;;;;;;;10.07;3.90;;;16.40;99.90;;;;;;5069204;28;20025;-84
2023/07/01 04:55:52;;;;;;;8.82;3.10;;;16.40;99.90;;;;;;5053084;28;20146;-84
2023/07/01 04:58:17;;;;;;;9.02;4.22;;;16.40;99.90;;;;;;5069215;28;20045;-85
2023/07/01 05:00:43;;;;;;;7.15;2.88;;;16.40;99.90;;;;;;5069247;28;20059;-85
2023/07/01 05:03:09;;;;;;;9.07;4.03;;;16.40;99.90;;;;;;5069551;28;20047;-85
2023/07/01 05:05:34;;;;;;;8.73;2.65;;;16.30;99.90;;;;;;5053625;28;20028;-84
2023/07/01 05:08:00;;;;;;;8.48;3.83;;;16.30;99.90;;;;;;5073980;28;20386;-85
2023/07/01 05:10:26;;;;;;;10.25;4.28;;;16.30;99.90;;;;;;5073327;28;20123;-84
2023/07/01 05:12:51;;;;;;;9.93;3.05;;;16.40;99.90;;;;;;5073067;28;20512;-85
2023/07/01 05:15:17;;;;;;;9.68;4.40;;;16.30;99.90;;;;;;5073322;28;20063;-84
2023/07/01 05:17:43;;;;;;;8.90;3.05;;;16.40;99.90;;;;;;5074559;28;20584;-84
2023/07/01 05:20:10;;;;;;;8.85;4.22;;;16.30;99.90;;;;;;5072847;28;20036;-84
2023/07/01 05:22:36;;;;;;;8.75;3.00;;;16.30;99.90;;;;;;5073108;28;20448;-84
2023/07/01 05:25:03;;;;;;;9.93;4.00;;;16.40;99.90;;;;;;5074941;28;20044;-84
2023/07/01 05:27:29;;;;;;;11.43;4.45;;;16.40;99.90;;;;;;5056697;28;20398;-84
2023/07/01 05:29:55;;;;;;;9.00;2.75;;;16.40;99.90;;;;;;5072654;28;20036;-85
2023/07/01 05:32:21;;;;;;;8.35;3.20;;;16.40;99.90;;;;;;5073150;28;20115;-85
2023/07/01 05:34:46;;;;;;;9.00;3.60;;;16.40;99.90;;;;;;5072874;28;20499;-85
2023/07/01 05:37:12;;;;;;;7.85;3.90;;;16.50;99.90;;;;;;5072860;28;20048;-85
2023/07/01 05:39:38;;;;;;;10.52;3.60;;;16.50;99.90;;;;;;5055941;28;20409;-84
2023/07/01 05:42:04;;;;;;;9.63;4.00;;;16.60;99.90;;;;;;5072597;28;20036;-84
2023/07/01 05:44:29;;;;;;;7.97;4.22;;;16.60;99.90;;;;;;5072774;28;20490;-84
2023/07/01 05:46:55;;;;;;;9.10;3.05;;;16.60;99.90;;;;;;5056249;28;20043;-85
2023/07/01 05:49:21;;;;;;;8.75;3.88;;;16.60;99.90;;;;;;5073004;28;20053;-85
2023/07/01 05:51:47;;;;;;;8.32;4.10;;;16.60;99.90;;;;;;5072232;28;20379;-84
2023/07/01 05:54:12;;;;;;;10.73;2.70;;;16.70;99.90;;;;;;5070201;28;20126;-84
2023/07/01 05:56:38;;;;;;;10.23;4.10;;;16.70;99.90;;;;;;5072758;28;20163;-84
2023/07/01 05:59:04;;;;;;;9.10;4.07;;;16.70;99.90;;;;;;5072310;28;20505;-85
2023/07/01 06:01:29;;;;;;;7.28;2.47;;;16.80;99.90;;;;;;5072341;28;20500;-84
2023/07/01 06:03:55;;;;;;;6.05;3.17;;;16.70;99.90;;;;;;5073630;28;20043;-84
2023/07/01 06:06:21;;;;;;;8.02;3.47;;;16.80;99.90;;;;;;5072653;28;20043;-84
2023/07/01 06:08:47;;;;;;;8.95;4.43;;;16.80;99.90;;;;;;5055934;28;20055;-83
2023/07/01 06:11:13;;;;;;;10.75;3.80;;;16.90;99.90;;;;;;5072070;28;20527;-84
2023/07/01 06:13:46;;;;;;;7.47;3.63;;;16.90;99.90;;;;;;5071867;28;20508;-84
2023/07/01 06:16:14;;;;;;;8.18;2.90;;;16.90;99.90;;;;;;5055462;28;20037;-83
2023/07/01 06:18:40;;;;;;;10.07;3.17;;;16.90;99.90;;;;;;5070533;28;20036;-84
2023/07/01 06:21:06;;;;;;;9.07;4.80;;;16.90;99.90;;;;;;5071521;28;20064;-84
2023/07/01 06:23:36;;;;;;;8.63;4.82;;;16.90;99.90;;;;;;5054472;28;20036;-84
2023/07/01 06:26:03;;;;;;;7.93;3.88;;;16.90;99.90;;;;;;5054075;28;20563;-84
2023/07/01 06:28:28;;;;;;;8.00;3.70;;;16.90;99.90;;;;;;5055122;28;20036;-84
2023/07/01 06:30:55;;;;;;;8.60;4.88;;;16.90;99.90;;;;;;5055246;28;20044;-84
2023/07/01 06:33:20;;;;;;;10.07;4.80;;;16.90;99.90;;;;;;5071931;28;20098;-84
2023/07/01 06:35:46;;;;;;;9.23;3.88;;;16.90;99.90;;;;;;5071770;28;20516;-84
2023/07/01 06:38:12;;;;;;;8.23;4.68;;;16.90;99.90;;;;;;5071637;28;20087;-84
2023/07/01 06:40:38;;;;;;;9.32;5.05;;;16.90;99.90;;;;;;5071407;28;20032;-84
2023/07/01 06:43:03;;;;;;;8.50;3.33;;;16.90;99.90;;;;;;5071532;28;20037;-84
2023/07/01 06:45:30;;;;;;;9.88;5.03;;;16.90;99.90;;;;;;5071302;28;20051;-84
2023/07/01 06:47:56;;;;;;;8.50;3.30;;;16.90;99.90;;;;;;5054835;28;20402;-84
2023/07/01 06:50:22;;;;;;;10.05;5.55;;;16.90;99.90;;;;;;5070789;28;20032;-84
2023/07/01 06:52:47;;;;;;;9.80;4.97;;;16.80;99.90;;;;;;5071202;28;20064;-84
2023/07/01 06:55:16;;;;;;;9.02;5.28;;;16.90;99.90;;;;;;5070683;28;20028;-84
2023/07/01 06:57:42;;;;;;;8.95;5.30;;;16.90;99.90;;;;;;5053861;28;20425;-84
2023/07/01 07:00:09;;;;;;;8.63;3.67;;;16.90;99.90;;;;;;5070550;28;20040;-84
2023/07/01 07:02:35;;;;;;;8.63;5.35;;;16.90;99.90;;;;;;5070880;28;20052;-85
2023/07/01 07:05:03;;;;;;;8.65;5.43;;;16.90;99.90;;;;;;5054793;28;20037;-84
2023/07/01 07:07:28;;;;;;;8.55;5.43;;;16.90;99.90;;;;;;5054382;28;20173;-85
2023/07/01 07:09:54;;;;;;;8.02;3.88;;;16.90;99.90;;;;;;5054378;28;20493;-84
2023/07/01 07:12:20;;;;;;;9.60;5.50;;;16.90;99.90;;;;;;5054286;28;20040;-85
2023/07/01 07:14:45;;;;;;;8.85;3.72;;;16.90;99.90;;;;;;5071972;28;20044;-84
2023/07/01 07:17:11;;;;;;;9.18;5.72;;;16.90;99.90;;;;;;5054396;28;20036;-84
2023/07/01 07:19:37;;;;;;;9.95;5.85;;;16.90;99.90;;;;;;5070445;28;20032;-84
2023/07/01 07:22:04;;;;;;;9.10;5.60;;;16.90;99.90;;;;;;5071630;28;20086;-84
2023/07/01 07:24:29;;;;;;;8.93;3.70;;;17.00;99.90;;;;;;5070941;28;20539;-84
2023/07/01 07:27:00;;;;;;;10.30;6.00;;;17.00;99.90;;;;;;5070767;28;20040;-84
2023/07/01 07:29:27;;;;;;;8.93;5.32;;;17.00;99.90;;;;;;5068363;28;20097;-84
2023/07/01 07:31:54;;;;;;;11.23;5.53;;;17.00;99.90;;;;;;5070585;28;20041;-84
2023/07/01 07:34:20;;;;;;;8.90;3.78;;;17.00;99.90;;;;;;5069964;28;20054;-84
2023/07/01 07:36:46;;;;;;;7.65;3.55;;;17.00;99.90;;;;;;5069964;28;20044;-84
2023/07/01 07:39:12;;;;;;;8.52;4.18;;;17.00;99.90;;;;;;5070432;28;20661;-84
2023/07/01 07:41:39;;;;;;;9.55;6.00;;;17.00;99.90;;;;;;5053554;28;20047;-84
2023/07/01 07:44:05;;;;;;;8.27;4.40;;;17.00;99.90;;;;;;5053672;28;20082;-84
2023/07/01 07:46:31;;;;;;;9.70;5.63;;;17.00;99.90;;;;;;5070575;28;20037;-84
2023/07/01 07:48:57;;;;;;;8.85;5.82;;;17.10;99.90;;;;;;5069925;28;20032;-84
2023/07/01 07:51:22;;;;;;;8.13;4.10;;;17.10;99.90;;;;;;5068279;28;20035;-84
2023/07/01 07:53:48;;;;;;;10.57;6.18;;;17.00;99.90;;;;;;5069656;28;20508;-84
2023/07/01 07:56:13;;;;;;;8.85;5.70;;;17.10;99.90;;;;;;5050567;28;20071;-85
2023/07/01 07:58:39;;;;;;;8.82;5.55;;;17.10;99.90;;;;;;5053147;28;20144;-85
2023/07/01 08:01:04;;;;;;;10.00;6.65;;;17.20;99.90;;;;;;5053166;28;20051;-84
2023/07/01 08:03:30;;;;;;;8.85;6.10;;;17.20;99.90;;;;;;5070043;28;20036;-84
2023/07/01 08:05:56;;;;;;;8.77;4.05;;;17.20;99.90;;;;;;5070481;28;20127;-85
2023/07/01 08:08:21;;;;;;;8.82;5.63;;;17.20;99.90;;;;;;5053350;28;20418;-85
2023/07/01 08:10:47;;;;;;;9.45;5.80;;;17.20;99.90;;;;;;5069800;28;20037;-84
2023/07/01 08:13:14;;;;;;;8.82;5.70;;;17.30;99.90;;;;;;5053200;28;20139;-84
2023/07/01 08:15:42;;;;;;;8.52;4.20;;;17.30;99.90;;;;;;5070015;28;20626;-84
2023/07/01 08:18:08;;;;;;;7.55;3.50;;;17.30;99.90;;;;;;5070009;28;20127;-84
2023/07/01 08:20:34;;;;;;;8.07;5.30;;;17.30;99.90;;;;;;5070540;28;20460;-84
2023/07/01 08:23:00;;;;;;;8.63;5.75;;;17.40;99.90;;;;;;5069653;28;20033;-84
2023/07/01 08:25:26;;;;;;;8.60;5.72;;;17.40;99.90;;;;;;5070089;28;20074;-84
2023/07/01 08:27:53;;;;;;;8.18;5.43;;;17.50;99.90;;;;;;5053276;28;20435;-84
2023/07/01 08:30:18;;;;;;;9.52;6.20;;;17.50;99.90;;;;;;5069741;28;20090;-84
2023/07/01 08:32:44;;;;;;;9.40;3.53;;;17.50;99.90;;;;;;5069324;28;20048;-84
2023/07/01 08:35:10;;;;;;;9.13;5.28;;;17.50;99.90;;;;;;5068112;28;20117;-83
2023/07/01 08:37:35;;;;;;;8.88;5.78;;;17.40;99.90;;;;;;5069637;28;20084;-84
2023/07/01 08:40:01;;;;;;;7.35;3.80;;;17.50;99.90;;;;;;5068247;28;20037;-84
2023/07/01 08:42:35;;;;;;;8.27;5.97;;;17.40;99.90;;;;;;5069588;28;20037;-84
2023/07/01 08:45:02;;;;;;;7.20;3.47;;;17.50;99.90;;;;;;5069528;28;20079;-84
2023/07/01 08:47:29;;;;;;;7.57;4.32;;;17.50;99.90;;;;;;5069828;28;20045;-84
2023/07/01 08:49:57;;;;;;;8.32;5.30;;;17.50;99.90;;;;;;5069254;28;20119;-84
2023/07/01 08:52:27;;;;;;;9.18;5.60;;;17.50;99.90;;;;;;5069374;28;20045;-84
2023/07/01 08:54:53;;;;;;;7.45;3.30;;;17.60;99.90;;;;;;5052741;28;20076;-84
2023/07/01 08:57:19;;;;;;;8.25;5.53;;;17.50;99.90;;;;;;5052778;28;20076;-84
2023/07/01 08:59:50;;;;;;;8.23;5.45;;;17.50;99.90;;;;;;5068737;28;20032;-84
2023/07/01 09:02:15;;;;;;;8.45;5.65;;;17.60;99.90;;;;;;5052200;28;20399;-84
2023/07/01 09:04:41;;;;;;;8.68;5.78;;;17.60;99.90;;;;;;5069150;28;20048;-84
2023/07/01 09:07:08;;;;;;;8.32;3.95;;;17.60;99.90;;;;;;5069508;28;20520;-85
2023/07/01 09:09:34;;;;;;;9.02;5.47;;;17.60;99.90;;;;;;5069412;28;20040;-85
2023/07/01 09:12:00;;;;;;;8.48;3.92;;;17.60;99.90;;;;;;5051989;28;20075;-84
2023/07/01 09:14:25;;;;;;;8.60;6.22;;;17.60;99.90;;;;;;5051644;28;20512;-84
2023/07/01 09:16:51;;;;;;;8.07;5.38;;;17.60;99.90;;;;;;5068420;28;20079;-84
2023/07/01 09:19:17;;;;;;;8.20;5.68;;;17.60;99.90;;;;;;5068688;28;20043;-84
2023/07/01 09:21:43;;;;;;;10.23;5.38;;;17.70;99.90;;;;;;5068574;28;20036;-84
2023/07/01 09:24:10;;;;;;;8.75;5.75;;;17.70;99.90;;;;;;5052374;28;20028;-84
2023/07/01 09:26:36;;;;;;;9.20;5.88;;;17.80;99.90;;;;;;5068576;28;20032;-84
2023/07/01 09:29:15;;;;;;;8.82;6.43;;;17.70;99.90;;;;;;5052184;28;20090;-84
2023/07/01 09:31:49;;;;;;;9.65;6.43;;;17.80;99.90;;;;;;5051992;28;20132;-84
2023/07/01 09:34:16;;;;;;;8.45;5.63;;;17.80;99.90;;;;;;5068697;28;20044;-84
2023/07/01 09:36:42;;;;;;;8.73;6.03;;;17.80;99.90;;;;;;5069161;28;20084;-84
2023/07/01 09:39:08;;;;;;;8.80;5.75;;;17.90;99.90;;;;;;5052474;28;20133;-84
2023/07/01 09:41:34;;;;;;;8.25;3.30;;;17.90;99.90;;;;;;5051766;28;20032;-84
2023/07/01 09:44:13;;;;;;;8.10;5.28;;;17.80;99.90;;;;;;5067742;28;20032;-84
2023/07/01 09:46:43;;;;;;;9.00;6.55;;;17.90;99.90;;;;;;5068187;28;20036;-84
2023/07/01 09:49:10;;;;;;;8.27;5.55;;;17.90;99.90;;;;;;5051393;28;20032;-84
2023/07/01 09:51:52;;;;;;;7.88;5.50;;;17.90;99.90;;;;;;5069049;28;20130;-84
2023/07/01 09:54:25;;;;;;;8.25;5.28;;;17.90;99.90;;;;;;5054761;28;20028;-84
2023/07/01 09:56:53;;;;;;;7.93;5.32;;;17.80;99.90;;;;;;5071367;28;20049;-84
2023/07/01 09:59:20;;;;;;;8.82;5.53;;;17.90;99.90;;;;;;5071491;28;20028;-84
2023/07/01 10:01:47;;;;;;;8.02;5.72;;;17.90;99.90;;;;;;5054171;28;20517;-84
2023/07/01 10:04:13;;;;;;;9.55;6.20;;;17.90;99.90;;;;;;5070781;28;20041;-84
2023/07/01 10:06:43;;;;;;;8.68;5.80;;;17.90;99.90;;;;;;5071415;28;20109;-85
2023/07/01 10:09:08;;;;;;;8.13;5.72;;;17.90;99.90;;;;;;5054684;28;20076;-84
2023/07/01 10:11:35;;;;;;;6.85;3.63;;;17.90;99.90;;;;;;5054654;28;20472;-84
2023/07/01 10:14:04;;;;;;;7.80;5.40;;;17.90;99.90;;;;;;5071012;28;20575;-84
2023/07/01 10:16:30;;;;;;;9.30;6.45;;;17.90;99.90;;;;;;5071032;28;20037;-84
2023/07/01 10:18:55;;;;;;;8.07;6.00;;;18.00;99.90;;;;;;5071567;28;20444;-84
2023/07/01 10:21:25;;;;;;;8.45;5.80;;;18.00;99.90;;;;;;5070797;28;20037;-84
2023/07/01 10:23:52;;;;;;;7.03;3.33;;;18.00;99.90;;;;;;5053871;28;20076;-84
2023/07/01 10:26:35;;;;;;;7.82;5.28;;;18.00;99.90;;;;;;5069600;28;20462;-84
2023/07/01 10:29:26;;;;;;;8.80;5.82;;;18.00;99.90;;;;;;5071304;28;20032;-84
2023/07/01 10:32:12;;;;;;;9.27;6.00;;;18.10;99.90;;;;;;5054519;28;20047;-84
2023/07/01 10:34:53;;;;;;;8.50;6.40;;;18.10;99.90;;;;;;5068787;28;20044;-84
2023/07/01 10:37:25;;;;;;;9.10;6.25;;;18.20;99.90;;;;;;5086103;28;20048;-84
2023/07/01 10:39:51;;;;;;;9.30;5.70;;;18.30;99.90;;;;;;5054468;28;20074;-84
2023/07/01 10:42:33;;;;;;;9.25;5.95;;;18.20;99.90;;;;;;5054711;28;20032;-84
2023/07/01 10:45:11;;;;;;;7.72;5.65;;;18.20;99.90;;;;;;5071184;28;20441;-84
2023/07/01 10:47:46;;;;;;;8.18;5.25;;;18.30;99.90;;;;;;5054987;28;20043;-84
2023/07/01 10:50:14;;;;;;;9.43;5.30;;;18.30;99.90;;;;;;5054691;28;20040;-84
2023/07/01 10:55:46;;;;;;;8.30;5.25;;;18.40;99.90;;;;;;5071189;28;20040;-84
2023/07/01 10:58:15;;;;;;;7.72;5.18;;;18.40;99.90;;;;;;5053854;28;20055;-85
2023/07/01 11:00:41;;;;;;;7.95;4.95;;;18.50;99.90;;;;;;5071133;28;20110;-85
2023/07/01 11:03:35;;;;;;;8.23;5.13;;;18.50;99.90;;;;;;5070223;28;20128;-84
2023/07/01 11:06:00;;;;;;;7.97;5.15;;;18.50;99.90;;;;;;5071532;28;20394;-85
2023/07/01 11:08:27;;;;;;;8.05;5.00;;;18.50;99.90;;;;;;5054739;28;20541;-85
2023/07/01 11:10:53;;;;;;;7.80;5.03;;;18.50;99.90;;;;;;5070993;28;20610;-85
2023/07/01 11:13:19;;;;;;;9.02;4.95;;;18.60;99.90;;;;;;5070971;28;20040;-84
2023/07/01 11:16:09;;;;;;;8.27;5.07;;;18.60;99.90;;;;;;5070628;28;20409;-85
2023/07/01 11:18:49;;;;;;;7.85;4.90;;;18.70;99.90;;;;;;5070957;28;20417;-84
2023/07/01 11:21:27;;;;;;;7.43;5.13;;;18.80;99.90;;;;;;5053644;28;20042;-84
2023/07/01 11:23:55;;;;;;;7.72;5.18;;;18.80;99.90;;;;;;5070680;28;20033;-84
2023/07/01 11:26:23;;;;;;;7.60;5.20;;;18.80;99.90;;;;;;5054269;28;20072;-84
2023/07/01 11:28:48;;;;;;;10.02;5.63;;;18.80;99.90;;;;;;5052823;28;20033;-84
2023/07/01 11:31:22;;;;;;;8.55;5.40;;;18.80;99.90;;;;;;5069090;28;20745;-85
2023/07/01 11:33:49;;;;;;;8.40;5.57;;;18.90;99.90;;;;;;5085401;28;20040;-84
2023/07/01 11:36:17;;;;;;;8.55;5.82;;;19.00;99.90;;;;;;5069805;28;20037;-85
2023/07/01 11:38:47;;;;;;;7.65;4.88;;;19.00;99.90;;;;;;5069774;28;20107;-85
2023/07/01 11:41:19;;;;;;;8.52;5.30;;;19.00;99.90;;;;;;5053369;28;20409;-85
2023/07/01 11:43:45;;;;;;;9.17;5.43;;;19.00;99.90;;;;;;5051418;28;20478;-85
2023/07/01 11:46:12;;;;;;;7.97;5.10;;;19.00;99.90;;;;;;5069647;28;20075;-85
2023/07/01 11:48:41;;;;;;;7.75;5.00;;;19.10;99.90;;;;;;5053494;28;20044;-84
2023/07/01 11:51:07;;;;;;;9.30;5.53;;;19.10;99.90;;;;;;5069998;28;20048;-85
2023/07/01 11:53:36;;;;;;;7.72;5.45;;;19.20;99.90;;;;;;5070096;28;20044;-85
2023/07/01 11:56:03;;;;;;;7.65;5.38;;;19.30;99.90;;;;;;5069974;28;20525;-85
2023/07/01 11:58:34;;;;;;;8.95;5.00;;;19.40;99.90;;;;;;5070226;28;20053;-85
2023/07/01 12:01:00;;;;;;;9.20;6.03;;;19.40;99.90;;;;;;5053114;28;20557;-85
2023/07/01 12:03:33;;;;;;;9.15;6.15;;;19.40;99.90;;;;;;5069992;28;20124;-85
2023/07/01 12:05:58;;;;;;;9.48;6.10;;;19.40;99.90;;;;;;5053364;28;20470;-84
2023/07/01 12:08:24;;;;;;;8.95;6.22;;;19.50;99.90;;;;;;5070549;28;20079;-85
2023/07/01 12:10:50;;;;;;;9.82;6.68;;;19.40;99.90;;;;;;5069886;28;20071;-87
2023/07/01 12:13:42;;;;;;;9.50;6.50;;;19.40;99.90;;;;;;5049433;28;20101;-85
2023/07/01 12:16:07;;;;;;;9.70;6.60;;;19.40;99.90;;;;;;5063176;28;20084;-85
2023/07/01 12:18:33;;;;;;;9.40;6.75;;;19.40;99.90;;;;;;5066031;28;20111;-85
2023/07/01 12:20:59;;;;;;;9.98;6.72;;;19.40;99.90;;;;;;5049644;28;20106;-85
2023/07/01 12:23:24;;;;;;;10.02;7.22;;;19.40;99.90;;;;;;5066346;28;20498;-85
2023/07/01 12:25:50;;;;;;;9.55;6.63;;;19.40;99.90;;;;;;5049455;28;20039;-85
2023/07/01 12:28:19;;;;;;;10.00;6.78;;;19.40;99.90;;;;;;5067987;28;20036;-85
2023/07/01 12:30:45;;;;;;;8.52;6.28;;;19.40;99.90;;;;;;5066628;28;20052;-85
2023/07/01 12:33:10;;;;;;;8.73;5.80;;;19.40;99.90;;;;;;5066869;28;20051;-85
2023/07/01 12:35:40;;;;;;;8.85;5.72;;;19.40;99.90;;;;;;5066784;28;20040;-84
2023/07/01 12:38:09;;;;;;;8.68;6.00;;;19.50;99.90;;;;;;5049857;28;20127;-85
2023/07/01 12:40:35;;;;;;;7.93;4.90;;;19.50;99.90;;;;;;5066442;28;20047;-85
2023/07/01 12:43:01;;;;;;;7.50;4.80;;;19.60;99.90;;;;;;5066677;28;20040;-85
2023/07/01 12:45:26;;;;;;;8.13;5.20;;;19.60;99.90;;;;;;5050034;28;20048;-85
2023/07/01 12:47:52;;;;;;;7.68;5.03;;;19.50;99.90;;;;;;5066868;28;20413;-85